West Warwick, Rhode Island
Current Conditions -  °F | °C
As of 10:51 AM on Sunday 23 Nov 2014 (Local Time) from KPVD Reporting Station
Scattered Clouds Scattered Clouds  
Wind Chill: 52°   Ceiling: Unl
Heat Index: 52°   Visibility: 10mi
Dew Point: 30°   Wind: 10mph
Humidity: 43%   Direction: 230°SW
Pressure: 30.16"   Gusts: NA
Location:  41.71°N, 71.52°W
Report Text: KPVD 231551Z 23009KT 10SM FEW065 SCT095 11/M01 A3016 RMK AO2 SLP213 T01111011
Loading
Personal Weather Stations






























Interactive Weather Map New forecast layout! Learn more

10-Day Weather Forecast

Advertisements
Track Severe Weather on mobile